Time;durP1;ratioP1;P1;durP2;ratioP2;P2;SDS_P1;SDS_P2;PMS_P1;PMS_P2;Temp;Humidity;BMP_temperature;BMP_pressure;BME280_temperature;BME280_humidity;BME280_pressure;Samples;Min_cycle;Max_cycle;Signal;HPM_P1;HPM_P2
2022/08/24 00:02:09;;;;;;;5.03;3.90;;;;;;;22.60;48.43;101546.31;4941493;29;20170;-69
2022/08/24 00:04:35;;;;;;;7.63;4.20;;;;;;;21.62;50.70;101544.34;4942610;29;20504;-71
2022/08/24 00:07:01;;;;;;;5.00;4.27;;;;;;;22.68;48.29;101548.75;4942186;29;20236;-72
2022/08/24 00:09:27;;;;;;;6.87;4.20;;;;;;;21.51;50.86;101550.78;4941697;29;20205;-70
2022/08/24 00:11:53;;;;;;;4.53;3.60;;;;;;;22.67;48.21;101547.88;4941683;29;20412;-70
2022/08/24 00:14:18;;;;;;;5.77;4.23;;;;;;;22.37;49.03;101546.94;4942235;29;20418;-70
2022/08/24 00:16:44;;;;;;;8.00;4.00;;;;;;;21.77;50.31;101551.97;4942014;29;20185;-69
2022/08/24 00:19:10;;;;;;;5.67;3.97;;;;;;;22.19;49.79;101551.81;4942523;29;20488;-69
2022/08/24 00:21:36;;;;;;;6.93;4.00;;;;;;;22.05;49.59;101553.94;4941234;29;20417;-69
2022/08/24 00:24:01;;;;;;;5.37;3.80;;;;;;;21.48;51.50;101544.66;4941671;29;20446;-71
2022/08/24 00:26:26;;;;;;;5.90;3.60;;;;;;;21.38;51.20;101554.63;4941596;29;20208;-70
2022/08/24 00:28:52;;;;;;;5.07;3.60;;;;;;;22.17;49.62;101555.41;4941724;29;20284;-72
2022/08/24 00:31:18;;;;;;;4.33;3.73;;;;;;;22.11;49.51;101545.81;4941797;29;20344;-70
2022/08/24 00:33:43;;;;;;;6.00;3.90;;;;;;;21.88;49.95;101549.06;4942312;29;20260;-70
2022/08/24 00:36:08;;;;;;;5.53;4.20;;;;;;;21.70;50.69;101555.66;4941601;29;20173;-69
2022/08/24 00:38:35;;;;;;;7.03;4.20;;;;;;;21.76;50.32;101550.22;4941682;29;20508;-64
2022/08/24 00:41:01;;;;;;;4.37;3.60;;;;;;;21.86;50.31;101540.25;4941623;29;20548;-67
2022/08/24 00:43:26;;;;;;;5.63;4.20;;;;;;;21.76;50.73;101544.91;4941450;29;20420;-68
2022/08/24 00:46:29;;;;;;;5.93;4.00;;;;;;;21.81;50.10;101545.69;4941519;29;20207;-66
2022/08/24 00:49:03;;;;;;;5.47;3.80;;;;;;;22.15;49.46;101546.59;4886589;29;20215;-68
2022/08/24 00:51:33;;;;;;;8.47;3.87;;;;;;;21.95;50.01;101549.78;4919429;29;20388;-67
2022/08/24 00:54:04;;;;;;;5.10;3.60;;;;;;;21.89;50.18;101549.91;4941521;29;20851;-68
2022/08/24 00:56:35;;;;;;;6.43;4.30;;;;;;;22.30;49.73;101551.50;4924704;29;20413;-68
2022/08/24 00:59:04;;;;;;;4.77;3.97;;;;;;;21.64;50.70;101556.69;4924672;29;20537;-68
2022/08/24 01:01:32;;;;;;;6.70;3.70;;;;;;;21.79;51.09;101555.44;4924827;29;20842;-67
2022/08/24 01:03:58;;;;;;;5.30;3.73;;;;;;;21.49;52.14;101557.03;4924602;29;20409;-68
2022/08/24 01:06:24;;;;;;;4.33;3.93;;;;;;;21.79;51.15;101560.75;4924753;29;20675;-68
2022/08/24 01:08:50;;;;;;;5.40;4.23;;;;;;;22.06;50.35;101547.72;4924884;29;20449;-68
2022/08/24 01:11:19;;;;;;;4.93;4.30;;;;;;;22.36;49.82;101546.06;4941086;29;20610;-67
2022/08/24 01:13:46;;;;;;;4.83;3.90;;;;;;;22.24;50.58;101551.66;4924532;29;20181;-68
2022/08/24 01:16:13;;;;;;;4.40;3.93;;;;;;;22.15;50.96;101552.78;4924916;29;20432;-67
2022/08/24 01:18:51;;;;;;;5.97;4.40;;;;;;;21.96;51.37;101551.50;4940962;29;20524;-67
2022/08/24 01:21:45;;;;;;;4.10;3.70;;;;;;;22.08;50.89;101553.84;4925662;29;20417;-67
2022/08/24 01:24:12;;;;;;;5.27;4.23;;;;;;;22.40;50.21;101546.00;4922895;29;20554;-68
2022/08/24 01:26:43;;;;;;;8.10;3.53;;;;;;;21.70;51.85;101556.56;4940969;29;20405;-68
2022/08/24 01:29:21;;;;;;;6.20;4.03;;;;;;;20.96;54.34;101559.91;4924161;29;20473;-67
2022/08/24 01:31:50;;;;;;;9.33;5.03;;;;;;;22.04;52.11;101560.13;4940817;29;20874;-68
2022/08/24 01:34:15;;;;;;;5.90;4.10;;;;;;;21.92;52.05;101561.34;4940660;29;20418;-68
2022/08/24 01:36:46;;;;;;;5.10;4.60;;;;;;;21.48;52.84;101550.81;4940876;29;20500;-68
2022/08/24 01:39:19;;;;;;;6.00;4.33;;;;;;;21.00;54.23;101564.28;4924698;29;20162;-68
2022/08/24 01:41:45;;;;;;;6.47;4.13;;;;;;;21.80;52.47;101559.00;4940753;29;20812;-67
2022/08/24 01:44:10;;;;;;;5.20;4.70;;;;;;;21.42;54.01;101550.09;4940547;29;20429;-68
2022/08/24 01:46:36;;;;;;;6.23;4.77;;;;;;;21.88;52.35;101562.31;4941301;29;20610;-68
2022/08/24 01:49:01;;;;;;;10.00;4.60;;;;;;;22.03;52.17;101559.28;4923906;29;20248;-68
2022/08/24 01:51:31;;;;;;;6.50;4.10;;;;;;;21.66;53.28;101554.00;4940591;29;20264;-67
2022/08/24 01:54:01;;;;;;;5.90;4.40;;;;;;;21.43;54.16;101550.06;4940766;29;20478;-67
2022/08/24 01:56:27;;;;;;;7.33;4.53;;;;;;;21.82;53.22;101555.38;4940586;29;20395;-67
2022/08/24 01:58:53;;;;;;;4.83;4.33;;;;;;;21.78;53.15;101545.72;4940779;29;20683;-69
2022/08/24 02:01:18;;;;;;;5.50;4.27;;;;;;;22.37;51.55;101549.59;4940819;29;20414;-68
2022/08/24 02:03:44;;;;;;;6.87;4.30;;;;;;;21.27;54.12;101556.63;4940547;29;20192;-68
2022/08/24 02:06:10;;;;;;;7.17;4.37;;;;;;;21.64;54.24;101563.78;4940457;29;20173;-68
2022/08/24 02:08:35;;;;;;;5.30;4.20;;;;;;;22.03;52.69;101558.41;4940578;29;20189;-67
2022/08/24 02:11:07;;;;;;;5.07;4.30;;;;;;;21.98;52.41;101562.97;4940332;29;20531;-66
2022/08/24 02:13:34;;;;;;;5.00;4.50;;;;;;;21.19;55.37;101564.75;4940105;29;20177;-67
2022/08/24 02:16:00;;;;;;;7.73;4.83;;;;;;;21.14;55.39;101562.19;4924355;29;20784;-67
2022/08/24 02:18:25;;;;;;;6.53;4.27;;;;;;;21.19;54.99;101565.63;4923815;29;20414;-68
2022/08/24 02:20:52;;;;;;;6.23;4.67;;;;;;;21.38;54.81;101570.53;4940282;29;20173;-67
2022/08/24 02:23:17;;;;;;;7.00;4.70;;;;;;;21.46;54.35;101562.38;4940349;29;20560;-68
2022/08/24 02:25:43;;;;;;;5.43;4.70;;;;;;;21.83;53.75;101567.72;4940251;29;20426;-68
2022/08/24 02:28:08;;;;;;;7.73;5.07;;;;;;;21.42;54.92;101566.91;4940082;29;20532;-67
2022/08/24 02:30:34;;;;;;;5.77;4.97;;;;;;;21.43;54.97;101573.06;4923738;29;20185;-67
2022/08/24 02:32:59;;;;;;;4.90;4.40;;;;;;;21.34;54.92;101580.31;4939947;29;20170;-68
2022/08/24 02:35:26;;;;;;;5.93;5.33;;;;;;;21.12;55.98;101577.28;4944282;29;20170;-66
2022/08/24 02:37:52;;;;;;;7.03;5.17;;;;;;;21.47;55.34;101578.28;4943791;29;20286;-67
2022/08/24 02:40:17;;;;;;;7.87;4.80;;;;;;;21.20;55.78;101580.63;4943794;29;20421;-67
2022/08/24 02:42:43;;;;;;;6.90;4.60;;;;;;;21.62;54.82;101570.91;4944164;29;20180;-69
2022/08/24 02:45:09;;;;;;;6.40;5.00;;;;;;;21.79;54.17;101581.13;4943673;29;20185;-69
2022/08/24 02:47:35;;;;;;;6.93;4.63;;;;;;;21.46;55.14;101581.84;4943692;29;20176;-68
2022/08/24 02:50:03;;;;;;;5.57;4.27;;;;;;;21.12;55.93;101584.34;4943240;29;20461;-68
2022/08/24 02:52:28;;;;;;;8.40;4.50;;;;;;;21.09;56.66;101581.75;4926831;29;20713;-68
2022/08/24 02:54:53;;;;;;;5.80;4.43;;;;;;;21.25;55.88;101584.97;4943533;29;20414;-68
2022/08/24 02:57:19;;;;;;;6.97;4.50;;;;;;;20.94;57.03;101581.16;4943879;29;20174;-67
2022/08/24 02:59:44;;;;;;;10.20;5.73;;;;;;;20.67;57.34;101572.84;4943529;29;20178;-68
2022/08/24 03:02:09;;;;;;;7.87;4.70;;;;;;;20.91;57.04;101575.06;4943483;29;20555;-68
2022/08/24 03:04:35;;;;;;;5.37;4.60;;;;;;;20.51;58.31;101577.53;4943560;29;20174;-68
2022/08/24 03:07:01;;;;;;;5.33;4.40;;;;;;;21.09;57.02;101574.66;4943257;29;20181;-68
2022/08/24 03:09:26;;;;;;;7.33;4.83;;;;;;;20.83;57.46;101573.41;4942394;29;20583;-68
2022/08/24 03:11:51;;;;;;;6.73;4.57;;;;;;;21.09;57.14;101576.47;4943576;29;20169;-68
2022/08/24 03:14:17;;;;;;;6.43;4.77;;;;;;;20.57;58.13;101579.19;4943130;29;20197;-67
2022/08/24 03:16:44;;;;;;;8.97;5.00;;;;;;;21.10;56.98;101570.25;4943196;29;20574;-67
2022/08/24 03:19:09;;;;;;;6.23;4.30;;;;;;;21.01;57.80;101579.25;4943150;29;20165;-67
2022/08/24 03:21:35;;;;;;;6.93;4.80;;;;;;;21.09;57.55;101572.00;4943133;29;20431;-67
2022/08/24 03:24:00;;;;;;;6.80;5.27;;;;;;;20.80;58.20;101570.84;4942919;29;20259;-67
2022/08/24 03:26:26;;;;;;;6.77;5.00;;;;;;;20.83;58.34;101575.22;4926582;29;20184;-67
2022/08/24 03:28:51;;;;;;;6.00;4.80;;;;;;;20.73;58.29;101577.16;4926554;29;20213;-68
2022/08/24 03:31:17;;;;;;;6.27;4.73;;;;;;;20.03;60.67;101580.16;4942845;29;20237;-68
2022/08/24 03:33:42;;;;;;;6.40;5.10;;;;;;;20.36;59.67;101578.69;4943174;29;20162;-67
2022/08/24 03:36:08;;;;;;;6.50;4.80;;;;;;;20.82;58.34;101577.00;4942757;29;20170;-67
2022/08/24 03:38:33;;;;;;;7.67;5.03;;;;;;;19.94;60.48;101577.63;4942754;29;20258;-68
2022/08/24 03:40:59;;;;;;;7.20;4.90;;;;;;;21.10;57.85;101576.41;4943270;29;20181;-68
2022/08/24 03:46:10;;;;;;;7.00;5.10;;;;;;;20.24;60.37;101573.63;4942728;29;20244;-68
2022/08/24 03:48:36;;;;;;;5.87;5.03;;;;;;;20.34;60.60;101579.63;4942542;29;20538;-69
2022/08/24 03:51:01;;;;;;;6.10;4.70;;;;;;;20.18;60.79;101579.00;4942748;29;20497;-68
2022/08/24 03:53:27;;;;;;;5.00;4.50;;;;;;;20.39;59.67;101574.22;4926305;29;20201;-68
2022/08/24 03:55:52;;;;;;;8.97;4.67;;;;;;;20.79;59.18;101582.34;4942610;29;20232;-67
2022/08/24 03:58:18;;;;;;;6.93;5.00;;;;;;;19.92;61.10;101576.81;4942402;29;20173;-66
2022/08/24 04:00:43;;;;;;;6.83;5.30;;;;;;;20.13;61.15;101587.03;4943145;29;20184;-68
2022/08/24 04:03:10;;;;;;;5.67;5.07;;;;;;;20.00;61.65;101581.06;4942190;29;20177;-69
2022/08/24 04:05:36;;;;;;;5.37;4.87;;;;;;;19.94;61.79;101582.94;4942511;29;20170;-68
2022/08/24 04:08:02;;;;;;;5.60;5.10;;;;;;;20.15;61.50;101592.31;4926016;29;20461;-68
2022/08/24 04:10:28;;;;;;;11.07;5.87;;;;;;;19.91;62.24;101580.34;4942330;29;20472;-68
2022/08/24 04:12:53;;;;;;;5.30;4.80;;;;;;;20.45;60.93;101585.59;4941981;29;20440;-67
2022/08/24 04:15:19;;;;;;;5.50;4.87;;;;;;;20.25;61.29;101593.03;4942652;29;20228;-67
2022/08/24 04:17:44;;;;;;;13.13;5.43;;;;;;;20.09;61.75;101592.41;4941919;29;20185;-67
2022/08/24 04:20:10;;;;;;;8.47;5.07;;;;;;;20.40;61.53;101589.22;4942116;29;20181;-68
2022/08/24 04:22:35;;;;;;;5.50;5.00;;;;;;;19.93;62.38;101594.41;4925817;29;20166;-67
2022/08/24 04:25:01;;;;;;;5.20;4.70;;;;;;;20.26;61.52;101579.75;4941720;29;20281;-67
2022/08/24 04:27:26;;;;;;;5.00;4.50;;;;;;;19.98;62.28;101590.78;4941862;29;20180;-67
2022/08/24 04:29:52;;;;;;;8.10;5.20;;;;;;;19.66;63.60;101594.78;4942257;29;20957;-68
2022/08/24 04:32:17;;;;;;;6.00;5.40;;;;;;;19.65;64.07;101589.53;4925378;29;20468;-67
2022/08/24 04:34:43;;;;;;;6.00;5.00;;;;;;;20.02;63.14;101588.97;4925109;29;20443;-68
2022/08/24 04:37:09;;;;;;;8.43;5.23;;;;;;;19.55;64.25;101582.59;4942135;29;20177;-67
2022/08/24 04:39:34;;;;;;;5.10;4.60;;;;;;;20.19;62.55;101586.94;4941713;29;20417;-67
2022/08/24 04:42:00;;;;;;;6.17;5.23;;;;;;;19.77;64.34;101581.41;4941732;29;20297;-67
2022/08/24 04:44:25;;;;;;;7.60;6.00;;;;;;;20.36;62.20;101585.75;4925347;29;20180;-67
2022/08/24 04:46:51;;;;;;;8.80;5.40;;;;;;;19.58;64.62;101587.84;4941365;29;20173;-68
2022/08/24 04:49:16;;;;;;;7.23;6.03;;;;;;;19.72;64.60;101585.88;4941376;29;20292;-67
2022/08/24 04:51:41;;;;;;;7.17;5.13;;;;;;;19.85;64.57;101591.91;4925249;29;20181;-68
2022/08/24 04:54:07;;;;;;;6.17;5.10;;;;;;;20.38;62.89;101589.25;4941185;29;20197;-67
2022/08/24 04:56:33;;;;;;;6.63;5.00;;;;;;;20.04;62.97;101592.47;4940858;29;20174;-68
2022/08/24 04:59:00;;;;;;;7.80;5.30;;;;;;;19.88;64.48;101589.19;4925416;29;20166;-67
2022/08/24 05:01:27;;;;;;;5.53;5.03;;;;;;;20.73;61.81;101593.06;4941385;29;20421;-67
2022/08/24 05:03:54;;;;;;;8.20;5.60;;;;;;;20.79;61.76;101603.53;4941367;29;20795;-67
2022/08/24 05:06:25;;;;;;;5.93;5.43;;;;;;;21.33;60.33;101601.59;4941757;29;20725;-68
2022/08/24 05:08:51;;;;;;;8.43;5.30;;;;;;;21.45;60.16;101603.97;4941109;29;20725;-69
2022/08/24 05:11:18;;;;;;;7.00;5.40;;;;;;;21.34;60.57;101611.28;4941213;29;20413;-67
2022/08/24 05:13:43;;;;;;;7.50;5.40;;;;;;;21.81;59.20;101612.03;4924987;29;20435;-68
2022/08/24 05:16:12;;;;;;;9.30;6.03;;;;;;;20.91;61.20;101613.03;4941144;29;20768;-68
2022/08/24 05:18:39;;;;;;;6.70;5.90;;;;;;;20.30;63.35;101621.16;4908941;29;20400;-67
2022/08/24 05:21:09;;;;;;;6.03;5.10;;;;;;;20.31;63.70;101624.66;4941341;29;20500;-68
2022/08/24 05:23:35;;;;;;;6.87;5.33;;;;;;;20.67;62.91;101622.28;4940745;29;20457;-69
2022/08/24 05:26:06;;;;;;;5.97;5.10;;;;;;;20.51;62.87;101619.94;4940849;29;20388;-68
2022/08/24 05:28:34;;;;;;;8.40;5.33;;;;;;;20.99;62.13;101621.72;4940900;29;20480;-67
2022/08/24 05:31:16;;;;;;;8.00;5.67;;;;;;;21.25;61.01;101622.94;4941036;29;20660;-69
2022/08/24 05:33:42;;;;;;;8.43;5.57;;;;;;;20.26;63.89;101634.50;4924140;29;20481;-68
2022/08/24 05:36:19;;;;;;;7.90;5.60;;;;;;;20.57;63.08;101639.28;4924272;29;20521;-67
2022/08/24 05:38:45;;;;;;;7.83;5.77;;;;;;;21.03;62.20;101638.44;4940755;29;20169;-68
2022/08/24 05:41:10;;;;;;;7.20;5.27;;;;;;;20.87;61.89;101637.84;4940565;29;20388;-68
2022/08/24 05:43:36;;;;;;;7.00;5.37;;;;;;;21.37;61.47;101648.34;4940863;29;20387;-69
2022/08/24 05:46:01;;;;;;;6.43;5.40;;;;;;;22.40;58.25;101642.50;4940534;29;20491;-68
2022/08/24 05:48:26;;;;;;;11.57;6.00;;;;;;;23.62;55.02;101630.28;4940907;29;20232;-67
2022/08/24 05:50:56;;;;;;;6.10;5.33;;;;;;;24.07;53.15;101628.88;4941021;29;20248;-68
2022/08/24 05:53:22;;;;;;;9.33;5.27;;;;;;;22.70;56.00;101635.53;4940222;29;20281;-67
2022/08/24 05:55:47;;;;;;;9.40;5.27;;;;;;;24.62;51.26;101628.84;4940413;29;20453;-68
2022/08/24 05:58:13;;;;;;;6.00;5.03;;;;;;;25.67;48.97;101628.50;4940792;29;20173;-69
2022/08/24 06:00:38;;;;;;;11.27;5.37;;;;;;;25.95;47.92;101639.88;4939287;29;20201;-69
2022/08/24 06:03:03;;;;;;;12.03;5.30;;;;;;;25.61;47.99;101635.88;4940200;29;20174;-67
2022/08/24 06:05:29;;;;;;;8.87;4.87;;;;;;;25.49;49.83;101632.78;4940917;29;20256;-66
2022/08/24 06:07:54;;;;;;;8.80;5.37;;;;;;;25.92;48.30;101640.00;4941699;29;20189;-67
2022/08/24 06:10:20;;;;;;;10.00;5.07;;;;;;;27.12;45.60;101628.69;4944213;29;20523;-67
2022/08/24 06:12:46;;;;;;;6.80;5.00;;;;;;;26.27;47.10;101641.25;4944508;29;20225;-66
2022/08/24 06:15:12;;;;;;;6.10;4.70;;;;;;;27.61;44.43;101633.56;4944343;29;20188;-67
2022/08/24 06:17:37;;;;;;;8.50;4.47;;;;;;;27.94;44.00;101632.84;4944111;29;20221;-66
2022/08/24 06:20:03;;;;;;;9.17;5.27;;;;;;;28.44;42.66;101624.09;4944658;29;20432;-67
2022/08/24 06:22:29;;;;;;;7.30;4.53;;;;;;;26.86;45.61;101636.09;4943883;29;20165;-67
2022/08/24 06:27:39;;;;;;;11.20;4.87;;;;;;;28.41;42.73;101629.63;4943978;29;20184;-66
2022/08/24 06:30:09;;;;;;;8.67;5.57;;;;;;;28.76;42.30;101632.31;4943863;29;20473;-67
2022/08/24 06:32:35;;;;;;;8.73;4.97;;;;;;;30.29;39.36;101633.69;4943852;29;20468;-66
2022/08/24 06:35:01;;;;;;;7.47;4.70;;;;;;;28.51;42.45;101644.28;4943730;29;20903;-67
2022/08/24 06:37:27;;;;;;;10.43;5.17;;;;;;;27.85;43.73;101640.41;4944351;29;20409;-75
2022/08/24 06:39:53;;;;;;;10.93;5.20;;;;;;;28.01;42.87;101642.34;4943833;29;20178;-68
2022/08/24 06:42:19;;;;;;;6.63;4.43;;;;;;;28.57;42.40;101643.09;4943634;29;20417;-68
2022/08/24 06:44:44;;;;;;;9.97;4.60;;;;;;;28.19;43.17;101636.06;4927338;29;20464;-68
2022/08/24 06:47:11;;;;;;;9.23;4.90;;;;;;;29.63;40.26;101638.34;4943602;29;20185;-66
2022/08/24 06:49:37;;;;;;;7.50;4.70;;;;;;;29.10;41.28;101640.38;4942867;29;20217;-66
2022/08/24 06:52:04;;;;;;;9.50;4.50;;;;;;;29.97;39.45;101649.88;4943226;29;20498;-67
2022/08/24 06:54:29;;;;;;;8.00;4.40;;;;;;;30.54;38.65;101642.06;4926695;29;20539;-67
2022/08/24 06:56:57;;;;;;;7.40;4.90;;;;;;;28.40;43.25;101654.69;4943475;29;20501;-67
2022/08/24 06:59:25;;;;;;;9.33;5.07;;;;;;;28.21;42.95;101650.28;4943787;29;20251;-69
2022/08/24 07:01:51;;;;;;;6.00;4.50;;;;;;;30.42;39.42;101648.16;4943517;29;20843;-66
2022/08/24 07:04:17;;;;;;;6.13;4.47;;;;;;;31.03;38.12;101645.41;4943248;29;20418;-68
2022/08/24 07:06:43;;;;;;;6.70;4.60;;;;;;;29.46;40.86;101652.72;4943539;29;20412;-67
2022/08/24 07:09:09;;;;;;;9.90;5.00;;;;;;;28.29;42.60;101655.25;4942802;29;20469;-66
2022/08/24 07:11:37;;;;;;;9.17;4.70;;;;;;;28.93;42.66;101660.94;4943078;29;20428;-66
2022/08/24 07:14:03;;;;;;;9.83;5.03;;;;;;;28.86;42.93;101660.41;4943250;29;20173;-65
2022/08/24 07:16:29;;;;;;;15.50;5.20;;;;;;;29.82;40.92;101657.00;4926648;29;20745;-65
2022/08/24 07:18:55;;;;;;;6.47;4.70;;;;;;;29.92;40.57;101660.03;4942803;29;20194;-66
2022/08/24 07:21:20;;;;;;;10.30;4.90;;;;;;;30.91;38.20;101665.84;4943114;29;20508;-66
2022/08/24 07:23:47;;;;;;;5.67;4.87;;;;;;;31.69;37.31;101659.19;4942718;29;20260;-67
2022/08/24 07:26:19;;;;;;;7.20;4.60;;;;;;;31.46;37.76;101663.34;4943014;29;20181;-67
2022/08/24 07:28:44;;;;;;;7.03;5.10;;;;;;;31.40;37.71;101657.38;4943451;29;20445;-68
2022/08/24 07:31:12;;;;;;;5.87;4.43;;;;;;;29.58;41.23;101668.19;4942940;29;20834;-68
2022/08/24 07:33:38;;;;;;;9.30;5.30;;;;;;;30.39;40.22;101665.34;4942647;29;20478;-68
2022/08/24 07:36:03;;;;;;;6.17;4.37;;;;;;;30.48;40.30;101658.56;4943273;29;20409;-67
2022/08/24 07:38:28;;;;;;;7.70;4.83;;;;;;;29.07;42.41;101674.47;4942743;29;20176;-67
2022/08/24 07:40:54;;;;;;;5.07;4.50;;;;;;;29.54;41.70;101680.06;4942603;29;20519;-67
2022/08/24 07:43:19;;;;;;;5.33;4.30;;;;;;;30.86;39.50;101671.50;4942812;29;20264;-68
2022/08/24 07:45:46;;;;;;;6.17;4.30;;;;;;;30.37;39.39;101664.53;4942676;29;20185;-67
2022/08/24 07:48:12;;;;;;;6.37;4.50;;;;;;;28.88;42.16;101679.09;4942379;29;20433;-68
2022/08/24 07:50:37;;;;;;;6.70;4.50;;;;;;;32.07;37.05;101663.88;4942740;29;20449;-67
2022/08/24 07:53:03;;;;;;;6.00;4.50;;;;;;;31.07;38.92;101666.66;4942220;29;20193;-67
2022/08/24 07:55:28;;;;;;;7.47;4.40;;;;;;;31.60;38.15;101666.06;4942370;29;20178;-68
2022/08/24 07:57:53;;;;;;;5.30;4.30;;;;;;;31.55;37.94;101663.63;4940684;29;20181;-69
2022/08/24 08:00:19;;;;;;;5.10;4.47;;;;;;;31.76;38.07;101663.22;4942026;29;20186;-66
2022/08/24 08:02:46;;;;;;;5.47;4.30;;;;;;;31.14;38.20;101672.50;4941921;29;20264;-67
2022/08/24 08:05:16;;;;;;;5.20;4.13;;;;;;;31.39;38.99;101668.25;4942438;29;20406;-67
2022/08/24 08:07:43;;;;;;;4.70;4.00;;;;;;;33.03;35.27;101663.63;4942174;29;20432;-67
2022/08/24 08:10:10;;;;;;;6.93;4.40;;;;;;;32.83;36.02;101667.75;4941906;29;20465;-67
2022/08/24 08:12:36;;;;;;;5.70;4.27;;;;;;;31.45;38.58;101672.41;4941740;29;20503;-66
2022/08/24 08:15:02;;;;;;;5.53;4.47;;;;;;;33.28;34.64;101663.75;4941834;29;20458;-68
2022/08/24 08:17:27;;;;;;;4.93;4.37;;;;;;;32.02;36.70;101674.13;4941111;29;20252;-67
2022/08/24 08:19:53;;;;;;;7.13;4.60;;;;;;;33.99;32.86;101677.47;4941990;29;20541;-67
2022/08/24 08:25:06;;;;;;;5.37;4.40;;;;;;;33.31;34.46;101669.75;4957468;29;20630;-67
2022/08/24 08:27:31;;;;;;;6.20;4.47;;;;;;;31.94;36.47;101681.84;4960713;28;20503;-65
2022/08/24 08:29:57;;;;;;;7.50;4.43;;;;;;;31.62;36.80;101682.13;4960285;29;20555;-66
2022/08/24 08:32:22;;;;;;;7.43;4.60;;;;;;;33.39;33.33;101674.63;4959372;28;20255;-66
2022/08/24 08:34:47;;;;;;;5.33;4.23;;;;;;;32.55;34.93;101690.38;4960559;29;20478;-66
2022/08/24 08:37:14;;;;;;;5.60;4.23;;;;;;;31.26;36.81;101691.56;4960705;29;20531;-67
2022/08/24 08:39:39;;;;;;;7.83;4.73;;;;;;;30.51;39.02;101692.50;4960744;29;20255;-66
2022/08/24 08:42:23;;;;;;;4.67;4.20;;;;;;;32.15;36.18;101679.53;4960552;29;20690;-68
2022/08/24 08:45:15;;;;;;;8.00;4.40;;;;;;;33.48;33.60;101676.66;4960472;29;20177;-68
2022/08/24 08:48:09;;;;;;;6.60;4.33;;;;;;;31.22;37.05;101686.38;4959662;28;20495;-66
2022/08/24 08:51:12;;;;;;;6.33;4.57;;;;;;;32.70;35.10;101680.34;4960449;29;20461;-67
2022/08/24 08:53:54;;;;;;;7.83;4.87;;;;;;;30.16;39.90;101688.22;4960361;29;20420;-67
2022/08/24 08:56:26;;;;;;;6.17;4.53;;;;;;;31.00;37.44;101691.31;4959889;29;20818;-69
2022/08/24 08:59:10;;;;;;;4.37;3.97;;;;;;;33.85;33.61;101679.38;4960407;29;20409;-67
2022/08/24 09:01:51;;;;;;;7.63;4.80;;;;;;;32.34;35.32;101684.59;4960185;28;20427;-69
2022/08/24 09:04:28;;;;;;;5.00;4.37;;;;;;;32.65;34.70;101677.97;4960128;28;20806;-69
2022/08/24 09:07:31;;;;;;;5.83;4.23;;;;;;;33.27;34.24;101680.94;4959502;28;20455;-68
2022/08/24 09:10:05;;;;;;;5.10;4.60;;;;;;;32.86;34.70;101680.16;4960141;29;20460;-66
2022/08/24 09:13:07;;;;;;;5.80;4.40;;;;;;;32.68;34.96;101676.91;4959941;29;20415;-67
2022/08/24 09:15:57;;;;;;;8.90;5.20;;;;;;;31.94;36.38;101673.75;4960070;29;20642;-66
2022/08/24 09:18:25;;;;;;;5.03;4.33;;;;;;;32.02;36.14;101676.81;4959307;29;20416;-67
2022/08/24 09:20:59;;;;;;;5.97;4.00;;;;;;;30.71;37.44;101686.75;4960025;28;20417;-67
2022/08/24 09:23:52;;;;;;;5.40;4.53;;;;;;;33.49;32.67;101673.00;4959700;29;20547;-67
2022/08/24 09:26:28;;;;;;;5.83;4.10;;;;;;;33.18;33.12;101669.78;4959257;28;20444;-67
2022/08/24 09:29:01;;;;;;;6.37;4.40;;;;;;;32.92;32.94;101674.31;4959674;29;20475;-67
2022/08/24 09:31:45;;;;;;;4.63;4.10;;;;;;;33.36;32.84;101664.91;4959861;29;20423;-67
2022/08/24 09:34:17;;;;;;;4.70;4.30;;;;;;;31.14;36.81;101671.66;4959776;29;20423;-68
2022/08/24 09:36:59;;;;;;;4.70;3.77;;;;;;;33.82;33.29;101668.78;4959377;28;20416;-67
2022/08/24 09:39:31;;;;;;;6.30;4.00;;;;;;;34.40;31.23;101663.53;4959845;29;20431;-67
2022/08/24 09:42:20;;;;;;;4.37;4.00;;;;;;;34.68;31.11;101664.09;4958854;29;20428;-67
2022/08/24 09:44:55;;;;;;;4.43;3.70;;;;;;;33.82;32.30;101657.97;4958747;29;20467;-67
2022/08/24 09:47:39;;;;;;;5.70;4.13;;;;;;;33.58;32.26;101666.91;4959644;29;20415;-67
2022/08/24 09:50:31;;;;;;;6.00;4.30;;;;;;;33.76;31.87;101655.72;4958744;29;20903;-69
2022/08/24 09:53:24;;;;;;;4.40;4.00;;;;;;;33.22;33.11;101665.88;4958932;29;20448;-67
2022/08/24 09:56:04;;;;;;;5.00;3.97;;;;;;;34.01;32.12;101667.41;4959692;29;20483;-69
2022/08/24 09:58:49;;;;;;;5.07;4.33;;;;;;;31.64;34.85;101666.72;4958856;28;20419;-68
2022/08/24 10:01:25;;;;;;;4.20;3.80;;;;;;;34.17;31.42;101656.28;4959524;28;20641;-69
2022/08/24 10:03:51;;;;;;;4.50;4.10;;;;;;;33.49;32.85;101654.06;4959070;29;20806;-68
2022/08/24 10:06:24;;;;;;;5.27;4.00;;;;;;;33.15;33.36;101648.38;4959274;28;20459;-68
2022/08/24 10:08:52;;;;;;;4.30;3.67;;;;;;;33.08;33.38;101657.88;4958289;29;20223;-69
2022/08/24 10:11:39;;;;;;;4.77;3.97;;;;;;;31.38;35.45;101663.84;4959215;28;20421;-68
2022/08/24 10:14:23;;;;;;;4.83;3.70;;;;;;;33.80;31.53;101656.34;4959153;28;20507;-68
2022/08/24 10:17:17;;;;;;;6.13;4.27;;;;;;;30.76;36.03;101667.66;4959411;28;20408;-67
2022/08/24 10:20:05;;;;;;;6.63;4.43;;;;;;;31.39;36.24;101655.66;4958489;29;20501;-67
2022/08/24 10:22:56;;;;;;;5.43;4.10;;;;;;;33.14;33.39;101640.38;4959000;28;20446;-67
2022/08/24 10:25:39;;;;;;;4.40;3.90;;;;;;;33.22;32.08;101646.97;4958542;29;20453;-67
2022/08/24 10:28:16;;;;;;;6.60;3.90;;;;;;;31.30;34.94;101649.97;4959068;28;20421;-66
2022/08/24 10:30:54;;;;;;;5.57;3.90;;;;;;;31.96;33.98;101643.03;4959043;29;20487;-68
2022/08/24 10:33:24;;;;;;;5.87;3.97;;;;;;;31.01;35.47;101649.97;4942665;29;20890;-66
2022/08/24 10:36:17;;;;;;;6.67;4.00;;;;;;;31.14;34.23;101650.97;4959158;29;20416;-68
2022/08/24 10:43:32;;;;;;;5.27;4.00;;;;;;;31.74;32.18;101643.56;4959195;29;20515;-67
2022/08/24 10:45:25;;;;;;;6.43;4.27;;;;;;;34.14;29.93;101635.75;4958835;29;20878;-68
2022/08/24 10:48:16;;;;;;;6.70;3.90;;;;;;;31.28;33.63;101638.44;4958924;28;20412;-67
2022/08/24 10:50:57;;;;;;;52.57;8.20;;;;;;;31.17;33.99;101640.00;4956760;29;20472;-67
2022/08/24 10:53:49;;;;;;;4.10;3.80;;;;;;;30.51;34.62;101647.63;4958653;29;20439;-67
2022/08/24 10:56:19;;;;;;;4.27;3.83;;;;;;;30.80;35.45;101639.59;4962201;28;20448;-67
2022/08/24 10:58:48;;;;;;;7.17;4.00;;;;;;;31.40;33.45;101637.66;4962266;29;20412;-66
2022/08/24 11:01:34;;;;;;;58.63;9.67;;;;;;;33.33;30.61;101626.44;4962365;28;20413;-68
2022/08/24 11:04:07;;;;;;;8.93;4.70;;;;;;;31.30;33.84;101636.50;4961400;28;20413;-67
2022/08/24 11:06:41;;;;;;;5.67;3.97;;;;;;;33.08;31.68;101628.16;4962422;29;20500;-66
2022/08/24 11:09:12;;;;;;;20.63;5.77;;;;;;;32.23;33.11;101628.66;4962185;29;20554;-67
2022/08/24 11:11:40;;;;;;;4.30;3.90;;;;;;;31.48;34.06;101627.25;4962245;28;20413;-67
2022/08/24 11:14:15;;;;;;;7.80;4.00;;;;;;;31.27;34.39;101629.53;4961330;29;20413;-68
2022/08/24 11:16:43;;;;;;;8.70;4.33;;;;;;;31.76;32.48;101619.19;4962363;29;20773;-66
2022/08/24 11:19:31;;;;;;;5.53;3.63;;;;;;;29.55;36.81;101636.09;4962135;28;20427;-67
2022/08/24 11:22:00;;;;;;;4.30;3.70;;;;;;;29.99;36.00;101643.47;4962084;28;20439;-67
2022/08/24 11:24:42;;;;;;;11.00;4.40;;;;;;;30.24;35.22;101632.16;4961684;29;20854;-67
2022/08/24 11:27:16;;;;;;;6.40;4.10;;;;;;;30.20;35.39;101630.59;4961417;28;20416;-67
2022/08/24 11:29:50;;;;;;;3.70;3.40;;;;;;;31.29;33.54;101621.34;4961924;29;20571;-67
2022/08/24 11:32:25;;;;;;;4.30;3.90;;;;;;;31.08;33.44;101619.03;4961977;29;20489;-66
2022/08/24 11:34:50;;;;;;;4.43;3.70;;;;;;;31.73;32.60;101625.66;4961920;29;20409;-66
2022/08/24 11:37:16;;;;;;;4.80;3.77;;;;;;;31.32;32.93;101637.28;4961711;28;20424;-67
2022/08/24 11:39:41;;;;;;;3.80;3.50;;;;;;;31.33;32.71;101636.34;4944947;28;20232;-68
2022/08/24 11:42:33;;;;;;;3.87;3.57;;;;;;;30.32;33.57;101628.13;4961778;28;20169;-67
2022/08/24 11:45:19;;;;;;;3.90;3.50;;;;;;;29.34;34.39;101639.03;4961824;29;20271;-67
2022/08/24 11:48:00;;;;;;;4.10;3.70;;;;;;;31.28;31.56;101631.22;4944984;29;20728;-67
2022/08/24 11:50:39;;;;;;;4.37;4.07;;;;;;;31.53;31.28;101632.34;4961653;29;20900;-67